Time;durP1;ratioP1;P1;durP2;ratioP2;P2;SDS_P1;SDS_P2;PMS_P1;PMS_P2;Temp;Humidity;BMP_temperature;BMP_pressure;BME280_temperature;BME280_humidity;BME280_pressure;Samples;Min_cycle;Max_cycle;Signal;HPM_P1;HPM_P2
2021/08/20 00:55:13;;;;;;;;;;;;;;;;;;;;;
2021/08/20 00:58:30;;;;;;;;;;;;;;;;;;;;;
2021/08/20 01:01:43;;;;;;;;;;;;;;;;;;;;;
2021/08/20 01:10:33;;;;;;;;;;;;;;;;;;;;;
2021/08/20 01:23:10;;;;;;;;;;;;;;;;;;;;;
2021/08/20 02:11:41;;;;;;;;;;;;;;;;;;;;;
2021/08/20 02:17:51;;;;;;;24.75;22.15;;;;;;;18.82;100.00;100026.17;1268607;110;21287;-86
2021/08/20 02:23:38;;;;;;;;;;;;;;;;;;;;;
2021/08/20 02:25:52;;;;;;;23.57;21.12;;;;;;;19.00;100.00;100032.92;1294081;106;21677;-86
2021/08/20 02:31:14;;;;;;;;;;;;;;;;;;;;;
2021/08/20 02:33:50;;;;;;;;;;;;;;;;;;;;;
2021/08/20 02:36:31;;;;;;;;;;;;;;;;;;;;;
2021/08/20 02:38:56;;;;;;;27.98;22.32;;;;;;;19.25;100.00;100036.55;1238219;114;21308;-87
2021/08/20 02:42:07;;;;;;;24.52;21.93;;;;;;;19.20;100.00;100043.19;1275263;108;21216;-85
2021/08/20 02:44:39;;;;;;;24.15;21.68;;;;;;;19.22;100.00;100033.78;1320874;101;21207;-86
2021/08/20 02:50:08;;;;;;;;;;;;;;;;;;;;;
2021/08/20 02:52:43;;;;;;;;;;;;;;;;;;;;;
2021/08/20 02:55:11;;;;;;;24.60;22.02;;;;;;;19.20;100.00;100061.66;1442999;94;21615;-85
2021/08/20 02:57:44;;;;;;;26.57;23.70;;;;;;;19.23;100.00;100059.98;1488144;94;21696;-85
2021/08/20 03:03:14;;;;;;;;;;;;;;;;;;;;;
2021/08/20 03:05:33;;;;;;;56.37;41.35;;;;;;;19.43;100.00;100063.84;1450957;97;21536;-82
2021/08/20 03:08:14;;;;;;;34.48;27.00;;;;;;;19.52;100.00;100058.76;1391298;101;21223;-84
2021/08/20 03:10:40;;;;;;;25.45;22.67;;;;;;;19.55;100.00;100061.84;1372939;103;21131;-86
2021/08/20 04:47:32;;;;;;;23.70;21.42;;;;;;;19.28;100.00;100106.09;1472884;93;20222;-87
2021/08/20 04:50:32;;;;;;;31.55;22.17;;;;;;;19.30;100.00;100112.86;1539177;91;21718;-88
2021/08/20 04:53:06;;;;;;;20.95;18.85;;;;;;;19.32;100.00;100108.19;1471820;94;21149;-82
2021/08/20 04:55:50;;;;;;;;;;;;;;;;;;;;;
2021/08/20 04:58:42;;;;;;;;;;;;;;;;;;;;;
2021/08/20 05:01:29;;;;;;;22.67;19.70;;;;;;;19.55;100.00;100113.81;1527547;92;21233;-83
2021/08/20 05:04:11;;;;;;;23.02;20.37;;;;;;;19.61;100.00;100101.69;1532112;92;21129;-84
2021/08/20 05:06:38;;;;;;;20.27;18.37;;;;;;;19.55;100.00;100098.80;1531132;91;21107;-88
2021/08/20 05:12:07;;;;;;;18.75;16.97;;;;;;;19.48;100.00;100098.41;1397206;101;21368;-87
2021/08/20 05:15:07;;;;;;;;;;;;;;;;;;;;;
2021/08/20 05:21:20;;;;;;;17.92;16.15;;;;;;;19.18;100.00;100089.24;1378139;102;21273;-82
2021/08/20 05:24:19;;;;;;;17.85;16.02;;;;;;;19.16;100.00;100089.92;1382411;102;21239;-84
2021/08/20 06:15:24;;;;;;;;;;;;;;;;;;;;;
2021/08/20 06:28:07;;;;;;;25.92;23.25;;;;;;;19.34;100.00;100079.79;1240667;110;21397;-88
2021/08/20 06:30:35;;;;;;;27.15;23.05;;;;;;;19.42;100.00;100087.28;1311866;104;21260;-84
2021/08/20 06:33:07;;;;;;;25.77;23.07;;;;;;;19.42;100.00;100083.31;1393826;101;21183;-84
2021/08/20 06:35:40;;;;;;;26.45;23.83;;;;;;;19.45;100.00;100086.40;1417286;99;21208;-83
2021/08/20 06:38:14;;;;;;;26.55;23.75;;;;;;;19.51;100.00;100085.64;1452433;96;21183;-86
2021/08/20 06:40:48;;;;;;;27.37;24.67;;;;;;;19.57;100.00;100080.64;1459096;96;21172;-87
2021/08/20 06:43:47;;;;;;;28.10;24.72;;;;;;;19.59;100.00;100080.77;1533178;91;21160;-86
2021/08/20 06:46:14;;;;;;;27.75;24.92;;;;;;;19.62;100.00;100084.84;1526176;92;21095;-87
2021/08/20 06:48:45;;;;;;;28.87;26.17;;;;;;;19.64;100.00;100085.48;1522489;92;21095;-85
2021/08/20 06:51:19;;;;;;;27.32;24.77;;;;;;;19.66;100.00;100083.48;1542622;86;21096;-86
2021/08/20 07:11:08;;;;;;;31.20;28.20;;;;;;;19.69;100.00;100088.37;1623737;88;21089;-86
2021/08/20 07:18:07;;;;;;;;;;;;;;;;;;;;;
2021/08/20 07:20:56;;;;;;;29.50;26.55;;;;;;;19.83;100.00;100092.77;1604949;87;21119;-87
2021/08/20 07:23:25;;;;;;;30.55;27.52;;;;;;;19.85;100.00;100092.11;1581828;88;21185;-88
2021/08/20 07:26:15;;;;;;;31.35;27.98;;;;;;;19.90;100.00;100098.16;1565509;88;21101;-85
2021/08/20 07:29:42;;;;;;;29.67;26.57;;;;;;;19.89;100.00;100104.95;1505182;90;21087;-87
2021/08/20 07:32:10;;;;;;;30.75;27.65;;;;;;;19.92;100.00;100116.45;1583649;90;21417;-87
2021/08/20 07:34:37;;;;;;;32.85;28.90;;;;;;;19.95;100.00;100114.77;1589501;87;21580;-88
2021/08/20 07:37:06;;;;;;;30.85;27.85;;;;;;;19.96;100.00;100121.17;1596934;87;21112;-88
2021/08/20 07:39:36;;;;;;;31.27;28.25;;;;;;;20.03;100.00;100126.52;1588478;88;21067;-87
2021/08/20 07:42:07;;;;;;;31.60;28.60;;;;;;;20.09;100.00;100129.72;1623799;85;21589;-88
2021/08/20 07:44:34;;;;;;;32.45;29.25;;;;;;;20.14;100.00;100123.38;1665703;85;21127;-86
2021/08/20 07:47:04;;;;;;;33.73;29.02;;;;;;;20.19;100.00;100117.50;1684409;83;21674;-85
2021/08/20 07:49:50;;;;;;;30.60;27.62;;;;;;;20.22;100.00;100118.97;1688882;84;21563;-86
2021/08/20 07:52:16;;;;;;;31.25;27.85;;;;;;;20.24;100.00;100126.17;1686837;83;21593;-86
2021/08/20 07:54:55;;;;;;;;;;;;;;;;;;;;;
2021/08/20 07:59:59;;;;;;;35.28;29.80;;;;;;;20.46;100.00;100148.95;1637813;85;21532;-89
2021/08/20 08:02:31;;;;;;;31.30;28.23;;;;;;;20.54;100.00;100147.17;1616126;87;21541;-91
2021/08/20 08:05:18;;;;;;;;;;;;;;;;;;;;;
2021/08/20 08:07:55;;;;;;;;;;;;;;;;;;;;;
2021/08/20 08:10:48;;;;;;;;;;;;;;;;;;;;;
2021/08/20 08:13:00;;;;;;;30.68;27.73;;;;;;;20.52;100.00;100150.50;1645163;83;21080;-85
2021/08/20 08:15:39;;;;;;;30.37;27.50;;;;;;;20.49;100.00;100144.58;1623368;86;21085;-89
2021/08/20 08:20:51;;;;;;;30.17;27.20;;;;;;;20.53;100.00;100145.53;1611260;87;21058;-88
2021/08/20 08:23:23;;;;;;;29.90;27.10;;;;;;;20.55;100.00;100147.48;1613540;86;21090;-86
2021/08/20 08:25:56;;;;;;;30.72;27.62;;;;;;;20.54;100.00;100142.69;1520560;89;21152;-83
2021/08/20 08:28:27;;;;;;;32.83;28.02;;;;;;;20.55;100.00;100148.30;1568099;87;21068;-82
2021/08/20 08:30:55;;;;;;;30.37;27.20;;;;;;;20.58;100.00;100160.31;1597803;86;21169;-86
2021/08/20 08:33:23;;;;;;;31.10;27.85;;;;;;;20.59;100.00;100161.43;1645832;84;21049;-87
2021/08/20 08:35:50;;;;;;;32.42;29.12;;;;;;;20.63;100.00;100155.28;1666671;83;21065;-83
2021/08/20 08:38:17;;;;;;;31.82;28.73;;;;;;;20.64;100.00;100159.53;1667767;84;21030;-83
2021/08/20 08:40:47;;;;;;;32.67;29.30;;;;;;;20.63;100.00;100148.15;1669098;84;21041;-82
2021/08/20 08:43:15;;;;;;;33.90;30.50;;;;;;;20.63;100.00;100142.05;1641687;84;21034;-85
2021/08/20 08:45:43;;;;;;;33.42;29.98;;;;;;;20.60;100.00;100130.53;1653272;85;21149;-84
2021/08/20 08:48:13;;;;;;;32.28;29.27;;;;;;;20.59;100.00;100123.59;1651444;85;21585;-83
2021/08/20 08:50:45;;;;;;;32.73;29.55;;;;;;;20.56;100.00;100127.45;1633490;86;21034;-83
2021/08/20 08:53:13;;;;;;;31.42;28.42;;;;;;;20.55;100.00;100128.98;1672502;84;21068;-82
2021/08/20 08:55:41;;;;;;;33.58;30.25;;;;;;;20.52;100.00;100126.70;1622901;87;21556;-82
2021/08/20 08:58:09;;;;;;;32.33;28.80;;;;;;;20.49;100.00;100125.27;1632686;86;21136;-83
2021/08/20 09:00:38;;;;;;;29.82;26.90;;;;;;;20.45;100.00;100116.91;1642927;85;20999;-83
2021/08/20 09:03:06;;;;;;;32.20;29.02;;;;;;;20.43;100.00;100108.86;1615741;86;21153;-84
2021/08/20 09:05:45;;;;;;;36.03;32.38;;;;;;;20.38;100.00;100095.38;1627104;88;21507;-84
2021/08/20 09:08:16;;;;;;;36.53;32.75;;;;;;;20.35;100.00;100088.66;1615879;88;21484;-83
2021/08/20 09:10:58;;;;;;;;;;;;;;;20.35;100.00;100067.50;1629520;87;22426;-84
2021/08/20 09:13:27;;;;;;;37.85;34.13;;;;;;;20.35;100.00;100054.29;1627077;87;20237;-85
2021/08/20 09:16:13;;;;;;;36.08;32.33;;;;;;;20.33;100.00;100064.23;1627466;86;21057;-83
2021/08/20 09:18:42;;;;;;;34.23;30.95;;;;;;;20.34;100.00;100085.70;1638859;85;21058;-84
2021/08/20 09:21:17;;;;;;;34.00;30.60;;;;;;;20.37;100.00;100097.22;1629064;86;22001;-87
2021/08/20 09:23:46;;;;;;;35.73;32.20;;;;;;;20.43;100.00;100106.22;1659941;85;21085;-88
2021/08/20 09:26:19;;;;;;;34.78;31.20;;;;;;;20.48;100.00;100113.86;1631273;86;21084;-87
2021/08/20 09:28:46;;;;;;;35.70;31.82;;;;;;;20.54;100.00;100112.80;1644332;86;21065;-85
2021/08/20 09:31:13;;;;;;;36.17;32.48;;;;;;;20.61;100.00;100121.06;1660083;86;21104;-84
2021/08/20 09:33:48;;;;;;;31.25;28.23;;;;;;;20.69;100.00;100122.76;1623925;88;21582;-86
2021/08/20 09:36:20;;;;;;;34.43;30.72;;;;;;;20.75;100.00;100124.66;1591843;87;21139;-84
2021/08/20 09:38:57;;;;;;;32.42;29.23;;;;;;;20.81;100.00;100123.06;1613564;87;22173;-87
2021/08/20 09:41:32;;;;;;;33.65;30.35;;;;;;;20.79;100.00;100129.84;1639302;86;21083;-85
2021/08/20 09:44:05;;;;;;;33.63;30.15;;;;;;;20.77;100.00;100141.64;1636846;86;21619;-84
2021/08/20 09:46:44;;;;;;;31.97;28.62;;;;;;;20.82;100.00;100148.52;1642599;86;21062;-87
2021/08/20 09:49:16;;;;;;;30.68;27.67;;;;;;;20.86;100.00;100154.23;1667222;84;21143;-86
2021/08/20 09:51:50;;;;;;;31.27;28.05;;;;;;;20.84;100.00;100157.56;1662379;84;21013;-87
2021/08/20 09:54:26;;;;;;;30.32;27.42;;;;;;;20.80;100.00;100159.27;1688750;84;21009;-85
2021/08/20 09:56:53;;;;;;;29.07;26.27;;;;;;;20.83;100.00;100166.52;1639503;86;21075;-88
2021/08/20 09:59:21;;;;;;;31.42;28.38;;;;;;;20.82;100.00;100167.52;1694677;83;21022;-85
2021/08/20 10:01:49;;;;;;;31.55;28.45;;;;;;;20.78;100.00;100166.60;1679804;85;21967;-85
2021/08/20 10:04:17;;;;;;;32.60;28.98;;;;;;;20.74;100.00;100183.05;1663005;85;21539;-87
2021/08/20 10:06:47;;;;;;;30.35;27.25;;;;;;;20.72;100.00;100192.97;1682262;83;21080;-86
2021/08/20 10:09:20;;;;;;;30.62;27.73;;;;;;;20.73;100.00;100212.64;1652511;84;21579;-86
2021/08/20 10:11:54;;;;;;;29.85;26.77;;;;;;;20.77;100.00;100217.88;1652643;85;21110;-89
2021/08/20 10:14:28;;;;;;;29.48;26.62;;;;;;;20.83;100.00;100226.84;1647663;84;21041;-86
2021/08/20 10:16:55;;;;;;;30.00;27.20;;;;;;;20.89;100.00;100242.47;1651883;85;21074;-88
2021/08/20 10:19:22;;;;;;;28.55;25.70;;;;;;;20.92;100.00;100240.25;1649485;85;21152;-86
2021/08/20 10:21:49;;;;;;;27.80;25.08;;;;;;;20.98;100.00;100247.13;1648566;84;21045;-87
2021/08/20 10:24:17;;;;;;;27.62;25.12;;;;;;;20.98;100.00;100242.64;1658382;85;21085;-88
2021/08/20 10:26:54;;;;;;;27.05;24.37;;;;;;;20.98;100.00;100243.96;1636312;85;21046;-87
2021/08/20 10:29:25;;;;;;;28.10;25.15;;;;;;;20.96;100.00;100238.88;1677536;85;21072;-87
2021/08/20 10:31:58;;;;;;;25.37;23.07;;;;;;;20.94;100.00;100229.50;1679499;84;21096;-85
2021/08/20 10:34:39;;;;;;;26.23;23.57;;;;;;;20.96;100.00;100221.67;1618649;86;21064;-85
2021/08/20 10:37:11;;;;;;;;;;;;;;;20.93;100.00;100219.39;1653162;86;21056;-89
2021/08/20 10:39:49;;;;;;;27.27;24.23;;;;;;;20.91;100.00;100220.61;1668678;85;20462;-86
2021/08/20 10:42:40;;;;;;;26.07;23.60;;;;;;;20.86;100.00;100227.00;1654666;85;21100;-87
2021/08/20 10:45:11;;;;;;;27.30;24.55;;;;;;;20.85;100.00;100231.45;1630545;86;22275;-86
2021/08/20 10:47:52;;;;;;;25.57;23.07;;;;;;;20.88;100.00;100240.83;1660673;86;21152;-89
2021/08/20 10:50:12;;;;;;;27.60;24.80;;;;;;;20.91;100.00;100241.77;1609895;86;21051;-89
2021/08/20 10:52:48;;;;;;;28.07;25.17;;;;;;;20.94;100.00;100240.08;1652390;86;21141;-88
2021/08/20 10:55:29;;;;;;;27.37;24.80;;;;;;;20.95;100.00;100245.17;1615034;86;21207;-87
2021/08/20 10:58:38;;;;;;;;;;;;;;;;;;;;;
2021/08/20 11:01:22;;;;;;;28.05;25.35;;;;;;;20.95;100.00;100247.81;1523632;93;21236;-92
2021/08/20 11:04:19;;;;;;;27.75;25.15;;;;;;;20.97;100.00;100251.58;1620479;87;21088;-90
2021/08/20 11:06:55;;;;;;;27.82;25.12;;;;;;;20.98;100.00;100250.58;1576633;89;21063;-88
2021/08/20 11:09:31;;;;;;;27.32;24.72;;;;;;;21.01;100.00;100256.82;1581980;89;21105;-87
2021/08/20 11:12:25;;;;;;;;;;;;;;;;;;;;;
2021/08/20 11:15:27;;;;;;;27.40;24.85;;;;;;;21.11;100.00;100261.25;1653979;85;21014;-91
2021/08/20 11:21:55;;;;;;;28.47;25.55;;;;;;;21.24;100.00;100251.25;1611618;86;21879;-88
2021/08/20 11:24:21;;;;;;;26.95;24.25;;;;;;;21.25;100.00;100250.77;1624603;87;21022;-88
2021/08/20 11:27:25;;;;;;;;;;;;;;;;;;;;;
2021/08/20 11:30:16;;;;;;;;;;;;;;;;;;;;;
2021/08/20 11:32:59;;;;;;;;;;;;;;;;;;;;;
2021/08/20 11:35:28;;;;;;;27.40;24.90;;;;;;;21.19;100.00;100264.27;1532812;90;21572;-87
2021/08/20 11:37:56;;;;;;;28.92;25.85;;;;;;;21.23;100.00;100272.11;1561983;89;20990;-88
2021/08/20 11:40:32;;;;;;;29.10;26.20;;;;;;;21.25;100.00;100267.45;1626116;86;20998;-87
2021/08/20 11:43:10;;;;;;;29.60;26.62;;;;;;;21.27;100.00;100272.57;1626604;86;21066;-87
2021/08/20 11:45:38;;;;;;;28.92;25.62;;;;;;;21.28;100.00;100268.40;1616375;88;20994;-89
2021/08/20 11:48:06;;;;;;;31.27;28.15;;;;;;;21.32;100.00;100265.34;1586378;86;21542;-90
2021/08/20 11:50:34;;;;;;;31.60;26.82;;;;;;;21.33;100.00;100265.17;1673312;83;21012;-86
2021/08/20 11:53:05;;;;;;;28.70;25.95;;;;;;;21.36;100.00;100267.41;1646554;85;21135;-89
2021/08/20 11:55:34;;;;;;;28.20;25.35;;;;;;;21.41;100.00;100261.53;1648269;84;21088;-88
2021/08/20 11:58:01;;;;;;;30.90;27.80;;;;;;;21.43;100.00;100254.21;1633568;86;21048;-87
2021/08/20 12:00:39;;;;;;;32.20;28.98;;;;;;;21.46;100.00;100247.70;1613329;85;21098;-89
2021/08/20 12:03:08;;;;;;;33.73;30.48;;;;;;;21.50;100.00;100233.06;1607811;86;21058;-89
2021/08/20 12:05:35;;;;;;;34.70;31.23;;;;;;;21.51;100.00;100232.06;1636443;84;21097;-89
2021/08/20 12:08:25;;;;;;;33.45;30.15;;;;;;;21.51;100.00;100234.19;1652074;85;21168;-93
2021/08/20 12:10:49;;;;;;;33.90;30.45;;;;;;;21.51;100.00;100230.73;1646235;85;21018;-87
2021/08/20 12:13:20;;;;;;;34.65;31.10;;;;;;;21.51;100.00;100236.84;1642804;86;21592;-89
2021/08/20 12:15:53;;;;;;;32.38;29.15;;;;;;;21.53;100.00;100239.28;1649146;85;21109;-88
2021/08/20 12:18:35;;;;;;;;;;;;;;;;;;;;;
2021/08/20 12:21:04;;;;;;;31.87;28.77;;;;;;;21.51;100.00;100240.00;1634553;86;21075;-90
2021/08/20 12:23:44;;;;;;;;;;;;;;;;;;;;;
2021/08/20 12:26:18;;;;;;;30.85;27.65;;;;;;;21.47;100.00;100227.66;1490393;91;21593;-88
2021/08/20 12:29:14;;;;;;;;;;;;;;;;;;;;;
2021/08/20 12:31:36;;;;;;;35.60;31.77;;;;;;;21.41;100.00;100218.67;1431291;98;21611;-89
2021/08/20 12:34:13;;;;;;;;;;;;;;;;;;;;;
2021/08/20 12:36:37;;;;;;;38.10;34.08;;;;;;;21.36;100.00;100205.70;1408902;100;21061;-86
2021/08/20 12:39:24;;;;;;;;;;;;;;;;;;;;;
2021/08/20 12:41:51;;;;;;;38.28;34.15;;;;;;;21.33;100.00;100214.02;1331656;106;21204;-85
2021/08/20 12:44:45;;;;;;;;;;;;;;;;;;;;;
2021/08/20 12:47:18;;;;;;;41.63;36.85;;;;;;;21.32;100.00;100216.36;1314387;106;21685;-90
2021/08/20 12:50:11;;;;;;;40.38;36.05;;;;;;;21.32;100.00;100217.19;1403354;100;21059;-91
2021/08/20 12:52:53;;;;;;;;;;;;;;;;;;;;;
2021/08/20 12:55:50;;;;;;;38.78;34.58;;;;;;;21.39;100.00;100229.95;1362434;103;21089;-92
2021/08/20 12:58:14;;;;;;;39.58;34.92;;;;;;;21.42;100.00;100237.52;1337011;103;21237;-85
2021/08/20 13:00:43;;;;;;;37.70;33.80;;;;;;;21.48;100.00;100240.38;1391220;100;21728;-87
2021/08/20 13:03:14;;;;;;;39.23;35.28;;;;;;;21.52;100.00;100237.64;1394380;98;21163;-89
2021/08/20 13:05:58;;;;;;;39.70;35.33;;;;;;;21.56;100.00;100236.25;1463992;95;21137;-86
2021/08/20 13:11:43;;;;;;;39.80;35.65;;;;;;;21.67;100.00;100240.99;1378994;96;21144;-87
2021/08/20 13:14:27;;;;;;;;;;;;;;;;;;;;;
2021/08/20 13:16:55;;;;;;;43.10;38.48;;;;;;;21.74;100.00;100241.86;1521925;92;21617;-92
2021/08/20 13:19:50;;;;;;;;;;;;;;;;;;;;;
2021/08/20 13:22:44;;;;;;;;;;;;;;;;;;;;;
2021/08/20 13:25:28;;;;;;;;;;;;;;;;;;;;;
2021/08/20 13:28:07;;;;;;;;;;;;;;;;;;;;;
2021/08/20 13:30:45;;;;;;;51.05;44.23;;;;;;;21.79;100.00;100247.06;1255095;112;21749;-88
2021/08/20 13:33:23;;;;;;;;;;;;;;;;;;;;;
2021/08/20 13:35:49;;;;;;;52.55;44.10;;;;;;;21.83;100.00;100241.17;1346711;103;21134;-86
2021/08/20 13:38:18;;;;;;;52.78;46.50;;;;;;;21.86;100.00;100238.62;1440404;92;21033;-87
2021/08/20 13:40:50;;;;;;;55.17;46.80;;;;;;;21.85;100.00;100229.88;1504443;93;21045;-86
2021/08/20 13:43:32;;;;;;;;;;;;;;;;;;;;;
2021/08/20 13:46:07;;;;;;;;;;;;;;;;;;;;;
2021/08/20 13:48:48;;;;;;;;;;;;;;;;;;;;;
2021/08/20 13:51:16;;;;;;;;;;;;;;;;;;;;;
2021/08/20 13:53:39;;;;;;;51.08;45.67;;;;;;;21.81;100.00;100239.73;1384797;100;21193;-89
2021/08/20 13:56:06;;;;;;;49.53;44.20;;;;;;;21.83;100.00;100235.06;1460745;96;21108;-87
2021/08/20 13:58:44;;;;;;;55.48;46.33;;;;;;;21.84;100.00;100238.00;1476445;95;21159;-88
2021/08/20 14:01:18;;;;;;;;;;;;;;;;;;;;;
2021/08/20 14:04:02;;;;;;;;;;;;;;;;;;;;;
2021/08/20 14:06:26;;;;;;;56.90;47.03;;;;;;;21.85;100.00;100240.96;1384076;102;21141;-85
2021/08/20 14:09:09;;;;;;;;;;;;;;;;;;;;;
2021/08/20 14:11:40;;;;;;;56.05;47.53;;;;;;;21.79;100.00;100232.48;1450255;96;21210;-85
2021/08/20 14:14:22;;;;;;;;;;;;;;;;;;;;;
2021/08/20 14:16:51;;;;;;;53.78;46.92;;;;;;;21.70;100.00;100223.39;1414149;100;21046;-84
2021/08/20 14:19:34;;;;;;;;;;;;;;;;;;;;;
2021/08/20 14:22:20;;;;;;;;;;;;;;;;;;;;;
2021/08/20 14:25:09;;;;;;;;;;;;;;;;;;;;;
2021/08/20 14:42:18;;;;;;;46.53;41.13;;;;;;;21.91;100.00;100207.06;1285423;108;21334;-86
2021/08/20 14:48:49;;;;;;;44.58;40.03;;;;;;;21.68;100.00;100206.87;1257317;112;21221;-87
2021/08/20 14:51:20;;;;;;;47.43;40.83;;;;;;;21.64;100.00;100212.76;1242911;114;21287;-87
2021/08/20 14:54:18;;;;;;;;;;;;;;;;;;;;;
2021/08/20 14:58:16;;;;;;;;;;;;;;;;;;;;;
2021/08/20 15:01:23;;;;;;;42.55;37.90;;;;;;;21.56;100.00;100221.68;1230256;114;21796;-85
2021/08/20 15:07:29;;;;;;;;;;;;;;;;;;;;;
2021/08/20 15:09:59;;;;;;;44.97;36.40;;;;;;;21.53;100.00;100219.41;1280028;110;21249;-88
2021/08/20 15:13:15;;;;;;;42.40;35.10;;;;;;;21.57;100.00;100221.99;1278050;109;21447;-86
2021/08/20 15:15:01;;;;;;;47.65;34.63;;;;;;;21.62;100.00;100218.78;1336144;101;21606;-85
2021/08/20 15:17:28;;;;;;;41.90;35.80;;;;;;;21.59;100.00;100222.65;1476488;95;21137;-86
2021/08/20 15:19:59;;;;;;;38.55;34.18;;;;;;;21.55;100.00;100228.79;1479174;95;21581;-88
2021/08/20 15:22:57;;;;;;;;;;;;;;;;;;;;;
2021/08/20 15:25:29;;;;;;;41.92;34.63;;;;;;;21.44;100.00;100224.88;1464958;96;21604;-88
2021/08/20 15:28:36;;;;;;;40.67;35.98;;;;;;;21.40;100.00;100220.17;1528251;90;21149;-86
2021/08/20 16:35:22;;;;;;;;;;;;;;;;;;;;;
2021/08/20 16:37:39;;;;;;;74.03;58.02;;;;;;;21.21;100.00;100309.06;1261597;112;21314;-86
2021/08/20 16:40:08;;;;;;;77.90;53.28;;;;;;;21.34;100.00;100309.17;1235717;111;21287;-86
2021/08/20 16:42:37;;;;;;;68.33;55.28;;;;;;;21.41;100.00;100308.70;1292827;108;21221;-84
2021/08/20 16:45:12;;;;;;;68.25;53.68;;;;;;;21.47;100.00;100318.20;1443180;97;21711;-85
2021/08/20 16:47:40;;;;;;;65.22;51.50;;;;;;;21.54;100.00;100319.89;1506352;90;21017;-85
2021/08/20 16:50:11;;;;;;;62.40;50.00;;;;;;;21.53;100.00;100320.06;1554225;90;21114;-86
2021/08/20 16:52:48;;;;;;;59.90;48.75;;;;;;;21.46;100.00;100321.38;1575425;90;21069;-85
2021/08/20 16:55:09;;;;;;;55.25;47.30;;;;;;;21.44;100.00;100330.81;1558483;90;21136;-85
2021/08/20 16:57:44;;;;;;;62.15;49.05;;;;;;;21.46;100.00;100317.89;1555033;91;21180;-85
2021/08/20 17:00:09;;;;;;;60.08;48.33;;;;;;;21.49;100.00;100317.51;1552790;90;21456;-85
2021/08/20 17:02:39;;;;;;;57.78;47.20;;;;;;;21.56;100.00;100317.04;1551260;91;21870;-87
2021/08/20 17:05:07;;;;;;;49.18;43.83;;;;;;;21.63;100.00;100317.92;1549620;91;21082;-85
2021/08/20 17:07:34;;;;;;;58.38;42.85;;;;;;;21.65;100.00;100319.04;1568326;90;21071;-86
2021/08/20 17:10:14;;;;;;;52.73;41.90;;;;;;;21.57;100.00;100324.81;1554917;91;21063;-85
2021/08/20 17:12:53;;;;;;;53.30;41.85;;;;;;;21.48;100.00;100343.16;1564291;90;21054;-85
2021/08/20 17:15:22;;;;;;;49.33;40.90;;;;;;;21.48;100.00;100351.63;1577277;89;21596;-86
2021/08/20 17:17:52;;;;;;;47.58;39.88;;;;;;;21.44;100.00;100350.67;1557384;89;21609;-85
2021/08/20 17:20:18;;;;;;;48.48;40.60;;;;;;;21.40;100.00;100351.25;1568421;90;21154;-86
2021/08/20 17:22:47;;;;;;;49.67;41.42;;;;;;;21.38;100.00;100352.78;1570469;90;21701;-86
2021/08/20 17:25:16;;;;;;;51.98;43.92;;;;;;;21.38;100.00;100352.78;1591877;87;21136;-87
2021/08/20 17:27:44;;;;;;;55.00;44.53;;;;;;;21.35;100.00;100348.38;1566864;89;21071;-85
2021/08/20 17:30:14;;;;;;;53.02;43.92;;;;;;;21.33;100.00;100345.09;1537052;89;21058;-87
2021/08/20 17:32:53;;;;;;;;;;;;;;;;;;;;;
2021/08/20 17:37:57;;;;;;;51.60;43.95;;;;;;;21.26;100.00;100346.39;1478893;95;21566;-85
2021/08/20 17:40:25;;;;;;;50.00;43.45;;;;;;;21.17;100.00;100345.70;1501756;94;21194;-84
2021/08/20 17:42:55;;;;;;;54.93;43.83;;;;;;;21.10;100.00;100354.09;1550415;92;21025;-84
2021/08/20 17:45:24;;;;;;;54.15;43.23;;;;;;;21.05;100.00;100357.83;1549179;90;21000;-85
2021/08/20 17:47:56;;;;;;;55.25;42.60;;;;;;;21.13;100.00;100359.02;1557021;90;21302;-86
2021/08/20 17:50:26;;;;;;;55.08;43.90;;;;;;;21.22;100.00;100357.03;1569787;88;21172;-86
2021/08/20 17:52:59;;;;;;;51.68;42.40;;;;;;;21.26;100.00;100360.95;1595465;88;21058;-87
2021/08/20 17:55:27;;;;;;;50.28;41.42;;;;;;;21.32;100.00;100368.12;1587976;89;21083;-87
2021/08/20 17:57:54;;;;;;;47.95;41.08;;;;;;;21.38;100.00;100378.45;1576200;89;21617;-88
2021/08/20 18:00:26;;;;;;;56.13;42.00;;;;;;;21.39;100.00;100386.20;1568111;90;21163;-86
2021/08/20 18:02:54;;;;;;;46.28;39.98;;;;;;;21.38;100.00;100377.13;1564105;91;21026;-85
2021/08/20 18:05:30;;;;;;;49.67;40.80;;;;;;;21.40;100.00;100381.71;1562649;90;21039;-86
2021/08/20 18:07:53;;;;;;;46.15;39.30;;;;;;;21.38;100.00;100383.23;1523847;90;21120;-85
2021/08/20 18:10:24;;;;;;;48.95;39.78;;;;;;;21.29;100.00;100387.03;1560183;91;21107;-86
2021/08/20 18:12:53;;;;;;;45.58;39.85;;;;;;;21.19;100.00;100386.56;1571250;90;21113;-84
2021/08/20 18:15:21;;;;;;;45.78;40.67;;;;;;;21.08;100.00;100379.44;1548178;91;21065;-86
2021/08/20 18:17:48;;;;;;;50.50;41.40;;;;;;;21.02;100.00;100382.02;1593760;89;21870;-87
2021/08/20 18:20:16;;;;;;;50.30;42.73;;;;;;;20.98;100.00;100380.77;1577304;90;21579;-86
2021/08/20 18:22:44;;;;;;;50.33;42.23;;;;;;;20.97;100.00;100379.94;1561907;91;21090;-87
2021/08/20 18:25:12;;;;;;;50.88;43.70;;;;;;;20.99;100.00;100379.77;1552870;90;21178;-85
2021/08/20 18:27:39;;;;;;;47.23;42.10;;;;;;;20.98;100.00;100381.58;1578434;90;21112;-87
2021/08/20 18:30:09;;;;;;;54.70;44.95;;;;;;;20.98;100.00;100376.29;1564541;90;21062;-84
2021/08/20 18:32:37;;;;;;;51.55;45.23;;;;;;;20.98;100.00;100371.00;1554757;90;21106;-85
2021/08/20 18:35:06;;;;;;;52.20;43.20;;;;;;;20.94;100.00;100374.53;1591987;89;21570;-88
2021/08/20 18:37:33;;;;;;;48.25;42.65;;;;;;;20.87;100.00;100378.94;1589813;90;21183;-88
2021/08/20 18:40:02;;;;;;;50.90;43.05;;;;;;;20.86;100.00;100376.49;1586505;88;21122;-88
2021/08/20 18:42:32;;;;;;;49.15;43.48;;;;;;;20.84;100.00;100381.14;1635001;86;21095;-88
2021/08/20 18:44:59;;;;;;;50.75;42.33;;;;;;;20.78;100.00;100382.23;1595649;88;21222;-86
2021/08/20 18:47:26;;;;;;;50.65;41.75;;;;;;;20.73;100.00;100375.86;1624058;87;21085;-88
2021/08/20 18:49:55;;;;;;;50.05;42.50;;;;;;;20.70;100.00;100377.52;1628397;87;21114;-86
2021/08/20 18:52:23;;;;;;;44.80;39.80;;;;;;;20.65;100.00;100370.97;1609981;88;21149;-87
2021/08/20 18:54:52;;;;;;;45.85;39.55;;;;;;;20.59;100.00;100376.98;1603538;87;21084;-88
2021/08/20 18:57:19;;;;;;;46.00;37.98;;;;;;;20.54;100.00;100379.39;1619228;86;21089;-85
2021/08/20 18:59:46;;;;;;;42.85;37.65;;;;;;;20.53;100.00;100383.55;1650023;86;21113;-86
2021/08/20 19:02:16;;;;;;;45.25;36.48;;;;;;;20.53;100.00;100380.91;1651743;85;21140;-85
2021/08/20 19:04:43;;;;;;;44.27;37.88;;;;;;;20.51;100.00;100381.07;1627938;86;21161;-88
2021/08/20 19:07:12;;;;;;;42.03;36.45;;;;;;;20.49;100.00;100377.81;1602672;87;21112;-85
2021/08/20 19:09:41;;;;;;;41.73;35.17;;;;;;;20.48;100.00;100373.53;1582004;89;21560;-84
2021/08/20 19:12:09;;;;;;;38.90;34.50;;;;;;;20.47;100.00;100367.41;1590035;89;20995;-85
2021/08/20 19:14:36;;;;;;;38.65;32.95;;;;;;;20.46;100.00;100363.63;1592268;89;21121;-85
2021/08/20 19:17:03;;;;;;;39.05;34.70;;;;;;;20.46;100.00;100362.31;1592162;89;21126;-85
2021/08/20 19:19:30;;;;;;;37.73;33.63;;;;;;;20.47;100.00;100358.14;1581070;89;21025;-85
2021/08/20 19:21:59;;;;;;;36.35;32.40;;;;;;;20.53;100.00;100362.39;1526482;91;21129;-84
2021/08/20 19:24:26;;;;;;;38.33;33.02;;;;;;;20.57;100.00;100367.13;1574874;89;21041;-85
2021/08/20 19:26:53;;;;;;;36.45;32.55;;;;;;;20.64;100.00;100383.05;1542099;91;21152;-84
2021/08/20 19:29:21;;;;;;;39.83;34.20;;;;;;;20.70;100.00;100393.39;1564894;89;21136;-86
2021/08/20 19:31:48;;;;;;;44.63;35.70;;;;;;;20.73;100.00;100400.47;1560780;89;21014;-86
2021/08/20 19:34:15;;;;;;;40.38;34.43;;;;;;;20.75;100.00;100387.88;1588656;89;21528;-86
2021/08/20 19:36:47;;;;;;;42.53;33.50;;;;;;;20.79;100.00;100389.13;1607428;88;21065;-84
2021/08/20 19:39:12;;;;;;;42.25;33.40;;;;;;;20.80;100.00;100385.48;1603301;88;21219;-84
2021/08/20 19:41:40;;;;;;;36.13;32.28;;;;;;;20.83;100.00;100372.89;1577855;89;21097;-83
2021/08/20 19:44:07;;;;;;;42.20;33.83;;;;;;;20.86;100.00;100361.94;1607627;87;21559;-85
2021/08/20 19:46:34;;;;;;;38.90;33.55;;;;;;;20.93;100.00;100357.52;1580875;89;21072;-85